PWSweather.com
Personal Weather Stations
Station Observations
TARRYHILL
Tarrytown, NY 10591

Tarrytown, NY 10591

Lat: 41.05185, Lon: -73.85296

Elevation: 341

Station Type: Davis Vantage Vue

Latest ConditionsUpdated 1:20:31 PM EDT Saturday, Oct 25, 2014
Currently Today's Max Today's Min Today's Average
Temperature 64.2°F17.9°C 64.2°F17.9°C 44.3°F6.8°C 50.5°F10.3°C
Dew Point 45.7°F7.6°C 47.8°F8.8°C 39.7°F4.3°C 43.1°F6.2°C
Winds 2.4 mph SW3.9 kmh SW 4.9 mph SW7.9 kmh SW - 0.7 mph 1.1 kmh
Wind Gusts 4.0 mph6.4 kmh 9.0 mph14.5 kmh - -
Humidity 51% 88% 51% 76%
Pressure 29.74 in1007.1 mb 29.86 in1011.2 mb 29.74 in1007.1 mb -
Hour Temp Dew Point Humidity Winds Wind Gusts Pressure Precip Precip Rate Daily Precip Total
01:20 PM 64.2°F17.9°C 45.7°F7.6°C 51% 2.4 mph SW3.9 kmh SW 4.0 mph6.4 kmh 29.74 in1007.1 mb 0.00 in0.0 mm 0.00 in/hr0.0 mm/hr 0.00 in0.0 mm
01:10 PM 64.2°F17.9°C 46.2°F7.9°C 52% 2.8 mph SW4.5 kmh SW 6.0 mph9.7 kmh 29.75 in1007.5 mb 0.00 in0.0 mm 0.00 in/hr0.0 mm/hr 0.00 in0.0 mm
01:00 PM 63.7°F17.6°C 46.2°F7.9°C 53% 2.9 mph SE4.7 kmh SE 5.0 mph8.0 kmh 29.76 in1007.8 mb 0.00 in0.0 mm 0.00 in/hr0.0 mm/hr 0.00 in0.0 mm
12:50 PM 63.3°F17.4°C 47.3°F8.5°C 56% 1.6 mph E2.6 kmh E 4.0 mph6.4 kmh 29.77 in1008.1 mb 0.00 in0.0 mm 0.00 in/hr0.0 mm/hr 0.00 in0.0 mm
12:40 PM 62.9°F17.2°C 47.4°F8.6°C 57% 1.5 mph SW2.4 kmh SW 7.0 mph11.3 kmh 29.78 in1008.5 mb 0.00 in0.0 mm 0.00 in/hr0.0 mm/hr 0.00 in0.0 mm
12:30 PM 62.3°F16.8°C 47.8°F8.8°C 59% 1.0 mph SE1.6 kmh SE 2.0 mph3.2 kmh 29.78 in1008.5 mb 0.00 in0.0 mm 0.00 in/hr0.0 mm/hr 0.00 in0.0 mm
12:20 PM 62.2°F16.8°C 46.8°F8.2°C 57% 2.6 mph WSW4.2 kmh WSW 4.0 mph6.4 kmh 29.79 in1008.8 mb 0.00 in0.0 mm 0.00 in/hr0.0 mm/hr 0.00 in0.0 mm
12:10 PM 61.8°F16.6°C 46.8°F8.2°C 58% 1.9 mph WNW3.1 kmh WNW 2.0 mph3.2 kmh 29.80 in1009.1 mb 0.00 in0.0 mm 0.00 in/hr0.0 mm/hr 0.00 in0.0 mm
12:00 PM 60.9°F16.1°C 46.5°F8.1°C 59% 3.4 mph SSW5.5 kmh SSW 9.0 mph14.5 kmh 29.80 in1009.1 mb 0.00 in0.0 mm 0.00 in/hr0.0 mm/hr 0.00 in0.0 mm
11:50 AM 60.1°F15.6°C 46.2°F7.9°C 60% 4.4 mph SW7.1 kmh SW 6.0 mph9.7 kmh 29.81 in1009.5 mb 0.00 in0.0 mm 0.00 in/hr0.0 mm/hr 0.00 in0.0 mm
11:40 AM 59.6°F15.3°C 46.6°F8.1°C 62% 1.2 mph WSW1.9 kmh WSW 4.0 mph6.4 kmh 29.81 in1009.5 mb 0.00 in0.0 mm 0.00 in/hr0.0 mm/hr 0.00 in0.0 mm
11:30 AM 59.1°F15.1°C 46.1°F7.8°C 62% 3.5 mph SW5.6 kmh SW 6.0 mph9.7 kmh 29.82 in1009.8 mb 0.00 in0.0 mm 0.00 in/hr0.0 mm/hr 0.00 in0.0 mm
11:20 AM 57.8°F14.3°C 46.1°F7.8°C 65% 1.9 mph SW3.1 kmh SW 3.0 mph4.8 kmh 29.82 in1009.8 mb 0.00 in0.0 mm 0.00 in/hr0.0 mm/hr 0.00 in0.0 mm
11:10 AM 56.9°F13.8°C 45.7°F7.6°C 66% 2.2 mph SW3.5 kmh SW 7.0 mph11.3 kmh 29.83 in1010.2 mb 0.00 in0.0 mm 0.00 in/hr0.0 mm/hr 0.00 in0.0 mm
11:00 AM 56.3°F13.5°C 45.1°F7.3°C 66% 4.9 mph SW7.9 kmh SW 6.0 mph9.7 kmh 29.83 in1010.2 mb 0.00 in0.0 mm 0.00 in/hr0.0 mm/hr 0.00 in0.0 mm
10:50 AM 55.7°F13.2°C 44.9°F7.2°C 67% 2.6 mph S4.2 kmh S 5.0 mph8.0 kmh 29.83 in1010.2 mb 0.00 in0.0 mm 0.00 in/hr0.0 mm/hr 0.00 in0.0 mm
10:40 AM 55.1°F12.8°C 44.3°F6.8°C 67% 1.9 mph ESE3.1 kmh ESE 6.0 mph9.7 kmh 29.84 in1010.5 mb 0.00 in0.0 mm 0.00 in/hr0.0 mm/hr 0.00 in0.0 mm
10:30 AM 54.8°F12.7°C 44.4°F6.9°C 68% 1.9 mph S3.1 kmh S 5.0 mph8.0 kmh 29.84 in1010.5 mb 0.00 in0.0 mm 0.00 in/hr0.0 mm/hr 0.00 in0.0 mm
10:20 AM 54.2°F12.3°C 45.0°F7.2°C 71% 0.8 mph S1.3 kmh S 2.0 mph3.2 kmh 29.84 in1010.5 mb 0.00 in0.0 mm 0.00 in/hr0.0 mm/hr 0.00 in0.0 mm
10:10 AM 53.7°F12.1°C 44.5°F6.9°C 71% 2.5 mph SE4.0 kmh SE 5.0 mph8.0 kmh 29.84 in1010.5 mb 0.00 in0.0 mm 0.00 in/hr0.0 mm/hr 0.00 in0.0 mm
10:00 AM 52.7°F11.5°C 43.9°F6.6°C 72% 0.8 mph SW1.3 kmh SW 3.0 mph4.8 kmh 29.84 in1010.5 mb 0.00 in0.0 mm 0.00 in/hr0.0 mm/hr 0.00 in0.0 mm
09:50 AM 51.6°F10.9°C 43.6°F6.4°C 74% 0.1 mph ESE0.2 kmh ESE 1.0 mph1.6 kmh 29.84 in1010.5 mb 0.00 in0.0 mm 0.00 in/hr0.0 mm/hr 0.00 in0.0 mm
09:40 AM 50.9°F10.5°C 43.2°F6.2°C 75% 1.3 mph S2.1 kmh S 5.0 mph8.0 kmh 29.84 in1010.5 mb 0.00 in0.0 mm 0.00 in/hr0.0 mm/hr 0.00 in0.0 mm
09:30 AM 49.8°F9.9°C 42.5°F5.8°C 76% 1.5 mph WSW2.4 kmh WSW 3.0 mph4.8 kmh 29.84 in1010.5 mb 0.00 in0.0 mm 0.00 in/hr0.0 mm/hr 0.00 in0.0 mm
09:20 AM 49.0°F9.4°C 42.4°F5.8°C 78% 0.8 mph S1.3 kmh S 2.0 mph3.2 kmh 29.85 in1010.8 mb 0.00 in0.0 mm 0.00 in/hr0.0 mm/hr 0.00 in0.0 mm
09:10 AM 48.0°F8.9°C 42.2°F5.7°C 80% 1.6 mph SW2.6 kmh SW 3.0 mph4.8 kmh 29.84 in1010.5 mb 0.00 in0.0 mm 0.00 in/hr0.0 mm/hr 0.00 in0.0 mm
09:00 AM 47.5°F8.6°C 41.7°F5.4°C 80% 0.1 mph SSE0.2 kmh SSE 1.0 mph1.6 kmh 29.85 in1010.8 mb 0.00 in0.0 mm 0.00 in/hr0.0 mm/hr 0.00 in0.0 mm
08:50 AM 47.2°F8.4°C 41.6°F5.3°C 81% 0.1 mph SSE0.2 kmh SSE -- 29.85 in1010.8 mb 0.00 in0.0 mm 0.00 in/hr0.0 mm/hr 0.00 in0.0 mm
08:40 AM 46.5°F8.1°C 41.3°F5.2°C 82% Calm Calm 1.0 mph1.6 kmh 29.85 in1010.8 mb 0.00 in0.0 mm 0.00 in/hr0.0 mm/hr 0.00 in0.0 mm
08:30 AM 46.0°F7.8°C 41.1°F5.1°C 83% 0.1 mph SE0.2 kmh SE 2.0 mph3.2 kmh 29.86 in1011.2 mb 0.00 in0.0 mm 0.00 in/hr0.0 mm/hr 0.00 in0.0 mm
08:20 AM 45.4°F7.4°C 40.8°F4.9°C 84% Calm Calm -- 29.86 in1011.2 mb 0.00 in0.0 mm 0.00 in/hr0.0 mm/hr 0.00 in0.0 mm
08:10 AM 44.7°F7.1°C 40.5°F4.7°C 85% Calm Calm 1.0 mph1.6 kmh 29.86 in1011.2 mb 0.00 in0.0 mm 0.00 in/hr0.0 mm/hr 0.00 in0.0 mm
08:00 AM 44.6°F7.0°C 39.8°F4.3°C 83% Calm Calm 1.0 mph1.6 kmh 29.86 in1011.2 mb 0.00 in0.0 mm 0.00 in/hr0.0 mm/hr 0.00 in0.0 mm
07:50 AM 44.3°F6.8°C 40.1°F4.5°C 85% Calm Calm -- 29.86 in1011.2 mb 0.00 in0.0 mm 0.00 in/hr0.0 mm/hr 0.00 in0.0 mm
07:40 AM 44.3°F6.8°C 40.1°F4.5°C 85% Calm Calm -- 29.86 in1011.2 mb 0.00 in0.0 mm 0.00 in/hr0.0 mm/hr 0.00 in0.0 mm
07:30 AM 44.8°F7.1°C 40.6°F4.8°C 85% Calm Calm -- 29.86 in1011.2 mb 0.00 in0.0 mm 0.00 in/hr0.0 mm/hr 0.00 in0.0 mm
07:20 AM 44.4°F6.9°C 40.5°F4.7°C 86% Calm Calm -- 29.85 in1010.8 mb 0.00 in0.0 mm 0.00 in/hr0.0 mm/hr 0.00 in0.0 mm
07:10 AM 45.6°F7.6°C 40.4°F4.7°C 82% Calm Calm -- 29.85 in1010.8 mb 0.00 in0.0 mm 0.00 in/hr0.0 mm/hr 0.00 in0.0 mm
07:00 AM 45.6°F7.6°C 40.7°F4.8°C 83% Calm Calm -- 29.85 in1010.8 mb 0.00 in0.0 mm 0.00 in/hr0.0 mm/hr 0.00 in0.0 mm
06:50 AM 45.6°F7.6°C 40.4°F4.7°C 82% 0.1 mph ESE0.2 kmh ESE -- 29.85 in1010.8 mb 0.00 in0.0 mm 0.00 in/hr0.0 mm/hr 0.00 in0.0 mm
06:40 AM 45.0°F7.2°C 39.9°F4.4°C 82% Calm Calm -- 29.85 in1010.8 mb 0.00 in0.0 mm 0.00 in/hr0.0 mm/hr 0.00 in0.0 mm
06:30 AM 44.8°F7.1°C 39.9°F4.4°C 83% Calm Calm -- 29.85 in1010.8 mb 0.00 in0.0 mm 0.00 in/hr0.0 mm/hr 0.00 in0.0 mm
06:20 AM 45.4°F7.4°C 40.5°F4.7°C 83% 0.4 mph E0.6 kmh E 1.0 mph1.6 kmh 29.86 in1011.2 mb 0.00 in0.0 mm 0.00 in/hr0.0 mm/hr 0.00 in0.0 mm
06:10 AM 46.0°F7.8°C 40.5°F4.7°C 81% Calm Calm -- 29.85 in1010.8 mb 0.00 in0.0 mm 0.00 in/hr0.0 mm/hr 0.00 in0.0 mm
06:00 AM 46.1°F7.8°C 40.6°F4.8°C 81% Calm Calm -- 29.86 in1011.2 mb 0.00 in0.0 mm 0.00 in/hr0.0 mm/hr 0.00 in0.0 mm
05:50 AM 46.2°F7.9°C 41.0°F5.0°C 82% Calm Calm -- 29.86 in1011.2 mb 0.00 in0.0 mm 0.00 in/hr0.0 mm/hr 0.00 in0.0 mm
05:40 AM 46.2°F7.9°C 40.7°F4.8°C 81% Calm Calm -- 29.86 in1011.2 mb 0.00 in0.0 mm 0.00 in/hr0.0 mm/hr 0.00 in0.0 mm
05:30 AM 46.0°F7.8°C 40.1°F4.5°C 80% Calm Calm -- 29.86 in1011.2 mb 0.00 in0.0 mm 0.00 in/hr0.0 mm/hr 0.00 in0.0 mm
05:20 AM 46.7°F8.2°C 40.2°F4.6°C 78% Calm Calm 1.0 mph1.6 kmh 29.86 in1011.2 mb 0.00 in0.0 mm 0.00 in/hr0.0 mm/hr 0.00 in0.0 mm
05:10 AM 47.3°F8.5°C 40.1°F4.5°C 76% Calm Calm -- 29.85 in1010.8 mb 0.00 in0.0 mm 0.00 in/hr0.0 mm/hr 0.00 in0.0 mm
05:00 AM 47.7°F8.7°C 40.2°F4.6°C 75% Calm Calm -- 29.85 in1010.8 mb 0.00 in0.0 mm 0.00 in/hr0.0 mm/hr 0.00 in0.0 mm
04:50 AM 47.6°F8.7°C 40.1°F4.5°C 75% Calm Calm -- 29.85 in1010.8 mb 0.00 in0.0 mm 0.00 in/hr0.0 mm/hr 0.00 in0.0 mm
04:40 AM 47.6°F8.7°C 40.1°F4.5°C 75% Calm Calm -- 29.85 in1010.8 mb 0.00 in0.0 mm 0.00 in/hr0.0 mm/hr 0.00 in0.0 mm
04:30 AM 47.6°F8.7°C 39.7°F4.3°C 74% Calm Calm 1.0 mph1.6 kmh 29.85 in1010.8 mb 0.00 in0.0 mm 0.00 in/hr0.0 mm/hr 0.00 in0.0 mm
04:20 AM 47.7°F8.7°C 40.2°F4.6°C 75% Calm Calm -- 29.85 in1010.8 mb 0.00 in0.0 mm 0.00 in/hr0.0 mm/hr 0.00 in0.0 mm
04:10 AM 48.5°F9.2°C 39.9°F4.4°C 72% 0.2 mph N0.3 kmh N 1.0 mph1.6 kmh 29.85 in1010.8 mb 0.00 in0.0 mm 0.00 in/hr0.0 mm/hr 0.00 in0.0 mm
04:00 AM 48.6°F9.2°C 40.0°F4.4°C 72% Calm Calm 1.0 mph1.6 kmh 29.85 in1010.8 mb 0.00 in0.0 mm 0.00 in/hr0.0 mm/hr 0.00 in0.0 mm
03:50 AM 48.6°F9.2°C 40.0°F4.4°C 72% Calm Calm 1.0 mph1.6 kmh 29.85 in1010.8 mb 0.00 in0.0 mm 0.00 in/hr0.0 mm/hr 0.00 in0.0 mm
03:40 AM 48.3°F9.1°C 40.1°F4.5°C 73% Calm Calm 1.0 mph1.6 kmh 29.85 in1010.8 mb 0.00 in0.0 mm 0.00 in/hr0.0 mm/hr 0.00 in0.0 mm
03:30 AM 47.5°F8.6°C 40.7°F4.8°C 77% 0.1 mph ESE0.2 kmh ESE -- 29.86 in1011.2 mb 0.00 in0.0 mm 0.00 in/hr0.0 mm/hr 0.00 in0.0 mm
03:20 AM 47.4°F8.6°C 41.9°F5.5°C 81% 0.1 mph E0.2 kmh E 1.0 mph1.6 kmh 29.85 in1010.8 mb 0.00 in0.0 mm 0.00 in/hr0.0 mm/hr 0.00 in0.0 mm
03:10 AM 47.7°F8.7°C 42.8°F6.0°C 83% Calm Calm -- 29.86 in1011.2 mb 0.00 in0.0 mm 0.00 in/hr0.0 mm/hr 0.00 in0.0 mm
03:00 AM 47.4°F8.6°C 43.4°F6.3°C 86% Calm Calm 1.0 mph1.6 kmh 29.86 in1011.2 mb 0.00 in0.0 mm 0.00 in/hr0.0 mm/hr 0.00 in0.0 mm
02:50 AM 47.6°F8.7°C 43.6°F6.4°C 86% 0.1 mph E0.2 kmh E -- 29.86 in1011.2 mb 0.00 in0.0 mm 0.00 in/hr0.0 mm/hr 0.00 in0.0 mm
02:40 AM 48.1°F8.9°C 43.8°F6.6°C 85% 0.5 mph NW0.8 kmh NW 2.0 mph3.2 kmh 29.86 in1011.2 mb 0.00 in0.0 mm 0.00 in/hr0.0 mm/hr 0.00 in0.0 mm
02:30 AM 48.5°F9.2°C 44.2°F6.8°C 85% Calm Calm 1.0 mph1.6 kmh 29.85 in1010.8 mb 0.00 in0.0 mm 0.00 in/hr0.0 mm/hr 0.00 in0.0 mm
02:20 AM 48.4°F9.1°C 44.4°F6.9°C 86% 0.3 mph N0.5 kmh N 3.0 mph4.8 kmh 29.85 in1010.8 mb 0.00 in0.0 mm 0.00 in/hr0.0 mm/hr 0.00 in0.0 mm
02:10 AM 48.4°F9.1°C 44.7°F7.1°C 87% Calm Calm -- 29.85 in1010.8 mb 0.00 in0.0 mm 0.00 in/hr0.0 mm/hr 0.00 in0.0 mm
02:00 AM 48.3°F9.1°C 44.6°F7.0°C 87% Calm Calm -- 29.85 in1010.8 mb 0.00 in0.0 mm 0.00 in/hr0.0 mm/hr 0.00 in0.0 mm
01:50 AM 48.5°F9.2°C 44.5°F6.9°C 86% Calm Calm -- 29.85 in1010.8 mb 0.00 in0.0 mm 0.00 in/hr0.0 mm/hr 0.00 in0.0 mm
01:40 AM 48.9°F9.4°C 44.9°F7.2°C 86% Calm Calm -- 29.85 in1010.8 mb 0.00 in0.0 mm 0.00 in/hr0.0 mm/hr 0.00 in0.0 mm
01:30 AM 48.9°F9.4°C 44.9°F7.2°C 86% Calm Calm -- 29.85 in1010.8 mb 0.00 in0.0 mm 0.00 in/hr0.0 mm/hr 0.00 in0.0 mm
01:20 AM 49.1°F9.5°C 44.8°F7.1°C 85% 0.1 mph N0.2 kmh N 1.0 mph1.6 kmh 29.84 in1010.5 mb 0.00 in0.0 mm 0.00 in/hr0.0 mm/hr 0.00 in0.0 mm
01:10 AM 49.2°F9.6°C 44.9°F7.2°C 85% 0.6 mph N1.0 kmh N 1.0 mph1.6 kmh 29.84 in1010.5 mb 0.00 in0.0 mm 0.00 in/hr0.0 mm/hr 0.00 in0.0 mm
01:00 AM 49.3°F9.6°C 45.0°F7.2°C 85% 0.9 mph NNE1.4 kmh NNE 2.0 mph3.2 kmh 29.84 in1010.5 mb 0.00 in0.0 mm 0.00 in/hr0.0 mm/hr 0.00 in0.0 mm
12:50 AM 49.3°F9.6°C 45.0°F7.2°C 85% Calm Calm -- 29.84 in1010.5 mb 0.00 in0.0 mm 0.00 in/hr0.0 mm/hr 0.00 in0.0 mm
12:40 AM 49.4°F9.7°C 45.7°F7.6°C 87% 0.1 mph NE0.2 kmh NE 1.0 mph1.6 kmh 29.84 in1010.5 mb 0.00 in0.0 mm 0.00 in/hr0.0 mm/hr 0.00 in0.0 mm
12:30 AM 49.5°F9.7°C 46.1°F7.8°C 88% Calm Calm 1.0 mph1.6 kmh 29.84 in1010.5 mb 0.00 in0.0 mm 0.00 in/hr0.0 mm/hr 0.00 in0.0 mm
12:20 AM 49.7°F9.8°C 46.0°F7.8°C 87% Calm Calm -- 29.84 in1010.5 mb 0.00 in0.0 mm 0.00 in/hr0.0 mm/hr 0.00 in0.0 mm
12:10 AM 50.0°F10.0°C 46.3°F7.9°C 87% 0.7 mph N1.1 kmh N 1.0 mph1.6 kmh 29.84 in1010.5 mb 0.00 in0.0 mm 0.00 in/hr0.0 mm/hr 0.00 in0.0 mm
12:00 AM 50.0°F10.0°C 46.6°F8.1°C 88% Calm Calm -- 29.84 in1010.5 mb 0.00 in0.0 mm 0.00 in/hr0.0 mm/hr 0.00 in0.0 mm